Time;durP1;ratioP1;P1;durP2;ratioP2;P2;SDS_P1;SDS_P2;PMS_P1;PMS_P2;Temp;Humidity;BMP_temperature;BMP_pressure;BME280_temperature;BME280_humidity;BME280_pressure;Samples;Min_cycle;Max_cycle;Signal;HPM_P1;HPM_P2
2021/11/03 00:01:39;;;;;;;0.10;0.10;;;;;;;;;;5095952;28;20119;-80
2021/11/03 00:04:05;;;;;;;0.35;0.35;;;;;;;;;;5095808;28;20036;-79
2021/11/03 00:06:31;;;;;;;0.10;0.10;;;;;;;;;;5095634;28;20500;-80
2021/11/03 00:08:58;;;;;;;0.20;0.20;;;;;;;;;;5096022;28;20054;-80
2021/11/03 00:11:23;;;;;;;3.50;0.70;;;;;;;;;;5095869;28;20133;-79
2021/11/03 00:13:48;;;;;;;0.30;0.30;;;;;;;;;;5096182;28;20012;-79
2021/11/03 00:16:14;;;;;;;0.20;0.20;;;;;;;;;;5095594;28;20388;-79
2021/11/03 00:18:39;;;;;;;0.30;0.30;;;;;;;;;;5095691;28;20119;-79
2021/11/03 00:21:05;;;;;;;1.55;1.45;;;;;;;;;;5095856;28;20028;-79
2021/11/03 00:23:30;;;;;;;0.20;0.20;;;;;;;;;;5095573;28;20148;-79
2021/11/03 00:25:56;;;;;;;0.45;0.45;;;;;;;;;;5095747;28;20036;-79
2021/11/03 00:28:21;;;;;;;0.68;0.68;;;;;;;;;;5095614;28;20016;-79
2021/11/03 00:30:48;;;;;;;0.10;0.10;;;;;;;;;;5095785;28;20020;-79
2021/11/03 00:33:13;;;;;;;0.10;0.10;;;;;;;;;;5095370;28;20050;-79
2021/11/03 00:35:39;;;;;;;0.10;0.10;;;;;;;;;;5093920;28;20048;-80
2021/11/03 00:38:04;;;;;;;0.32;0.32;;;;;;;;;;5078343;28;20473;-79
2021/11/03 00:40:30;;;;;;;0.20;0.20;;;;;;;;;;5073812;28;20043;-79
2021/11/03 00:42:55;;;;;;;0.20;0.20;;;;;;;;;;5074806;28;20016;-79
2021/11/03 00:45:21;;;;;;;0.10;0.10;;;;;;;;;;5074441;28;20032;-79
2021/11/03 00:47:46;;;;;;;0.17;0.17;;;;;;;;;;5074929;28;20043;-79
2021/11/03 00:50:12;;;;;;;0.10;0.10;;;;;;;;;;5074876;28;20468;-79
2021/11/03 00:52:37;;;;;;;0.10;0.10;;;;;;;;;;5074864;28;20139;-80
2021/11/03 00:55:03;;;;;;;0.85;0.32;;;;;;;;;;5074853;28;20397;-79
2021/11/03 00:57:28;;;;;;;1.27;1.17;;;;;;;;;;5074755;28;20015;-79
2021/11/03 00:59:53;;;;;;;0.65;0.65;;;;;;;;;;5074312;28;20036;-79
2021/11/03 01:02:19;;;;;;;0.10;0.10;;;;;;;;;;5074726;28;20123;-79
2021/11/03 01:04:45;;;;;;;0.10;0.10;;;;;;;;;;5074508;28;20021;-79
2021/11/03 01:07:11;;;;;;;0.90;0.90;;;;;;;;;;5073367;28;20028;-79
2021/11/03 01:09:36;;;;;;;0.10;0.10;;;;;;;;;;5073212;28;20032;-79
2021/11/03 01:12:02;;;;;;;0.25;0.25;;;;;;;;;;5074515;28;20066;-79
2021/11/03 01:14:27;;;;;;;0.10;0.10;;;;;;;;;;5073587;28;20082;-79
2021/11/03 01:16:52;;;;;;;0.30;0.30;;;;;;;;;;5074657;28;20111;-80
2021/11/03 01:19:17;;;;;;;0.30;0.30;;;;;;;;;;5074346;28;20372;-79
2021/11/03 01:21:43;;;;;;;0.68;0.68;;;;;;;;;;5074214;28;20040;-79
2021/11/03 01:24:08;;;;;;;0.10;0.10;;;;;;;;;;5074161;28;20484;-80
2021/11/03 01:26:34;;;;;;;0.50;0.50;;;;;;;;;;5073840;28;20143;-79
2021/11/03 01:28:59;;;;;;;0.10;0.10;;;;;;;;;;5074184;28;20040;-79
2021/11/03 01:31:25;;;;;;;1.85;1.75;;;;;;;;;;5074102;28;20032;-80
2021/11/03 01:33:50;;;;;;;0.20;0.20;;;;;;;;;;5088438;28;20099;-79
2021/11/03 01:36:16;;;;;;;0.10;0.10;;;;;;;;;;5094464;28;20088;-79
2021/11/03 01:38:41;;;;;;;0.10;0.10;;;;;;;;;;5094154;28;20062;-79
2021/11/03 01:41:07;;;;;;;0.77;0.63;;;;;;;;;;5093857;28;20054;-79
2021/11/03 01:43:38;;;;;;;0.10;0.10;;;;;;;;;;5093908;28;20116;-79
2021/11/03 01:46:18;;;;;;;0.20;0.20;;;;;;;;;;5094221;28;20428;-79
2021/11/03 01:48:44;;;;;;;0.43;0.43;;;;;;;;;;5093992;28;20024;-79
2021/11/03 01:51:10;;;;;;;0.10;0.10;;;;;;;;;;5093714;28;20482;-79
2021/11/03 01:53:36;;;;;;;0.10;0.10;;;;;;;;;;5094039;28;20020;-80
2021/11/03 01:56:04;;;;;;;0.30;0.30;;;;;;;;;;5093945;28;20039;-79
2021/11/03 01:58:41;;;;;;;0.75;0.75;;;;;;;;;;5093862;28;20028;-80
2021/11/03 02:01:07;;;;;;;0.10;0.10;;;;;;;;;;5093076;28;20044;-80
2021/11/03 02:03:33;;;;;;;0.13;0.13;;;;;;;;;;5093885;28;20044;-80
2021/11/03 02:06:00;;;;;;;0.35;0.35;;;;;;;;;;5093925;28;20054;-79
2021/11/03 02:08:26;;;;;;;0.10;0.10;;;;;;;;;;5093757;28;20078;-80
2021/11/03 02:10:51;;;;;;;0.17;0.17;;;;;;;;;;5093825;28;20028;-79
2021/11/03 02:13:16;;;;;;;0.25;0.25;;;;;;;;;;5093748;28;20038;-80
2021/11/03 02:15:42;;;;;;;3.72;2.78;;;;;;;;;;5093595;28;20024;-79
2021/11/03 02:18:10;;;;;;;0.10;0.10;;;;;;;;;;5093687;28;20434;-79
2021/11/03 02:20:38;;;;;;;0.65;0.65;;;;;;;;;;5093444;28;20049;-79
2021/11/03 02:23:06;;;;;;;1.17;1.15;;;;;;;;;;5093948;28;20024;-80
2021/11/03 02:25:34;;;;;;;1.65;1.55;;;;;;;;;;5093431;28;20039;-79
2021/11/03 02:28:01;;;;;;;0.10;0.10;;;;;;;;;;5093647;28;20368;-79
2021/11/03 02:30:26;;;;;;;0.10;0.10;;;;;;;;;;5093485;28;20032;-80
2021/11/03 02:32:56;;;;;;;0.32;0.32;;;;;;;;;;5093400;28;20031;-80
2021/11/03 02:35:22;;;;;;;1.02;1.02;;;;;;;;;;5093395;28;20128;-80
2021/11/03 02:37:49;;;;;;;0.10;0.10;;;;;;;;;;5093216;28;20111;-80
2021/11/03 02:40:17;;;;;;;0.10;0.10;;;;;;;;;;5093364;28;20036;-80
2021/11/03 02:42:45;;;;;;;0.10;0.10;;;;;;;;;;5093497;28;20115;-80
2021/11/03 02:45:23;;;;;;;0.73;0.32;;;;;;;;;;5093360;28;20418;-80
2021/11/03 02:47:48;;;;;;;0.20;0.20;;;;;;;;;;5092989;28;20479;-80
2021/11/03 02:50:14;;;;;;;0.20;0.20;;;;;;;;;;5093397;28;20039;-80
2021/11/03 02:52:39;;;;;;;0.10;0.10;;;;;;;;;;5093235;28;20054;-80
2021/11/03 02:55:06;;;;;;;0.10;0.10;;;;;;;;;;5093005;28;20051;-80
2021/11/03 02:57:32;;;;;;;1.80;1.67;;;;;;;;;;5093215;28;20024;-80
2021/11/03 02:59:57;;;;;;;0.10;0.10;;;;;;;;;;5092969;28;20529;-79
2021/11/03 03:02:22;;;;;;;0.10;0.10;;;;;;;;;;5093074;28;20020;-79
2021/11/03 03:04:50;;;;;;;0.25;0.25;;;;;;;;;;5093183;28;20126;-80
2021/11/03 03:07:16;;;;;;;0.13;0.13;;;;;;;;;;5093335;28;20063;-80
2021/11/03 03:09:42;;;;;;;0.10;0.10;;;;;;;;;;5093448;28;20012;-80
2021/11/03 03:12:08;;;;;;;0.45;0.45;;;;;;;;;;5093155;28;20039;-80
2021/11/03 03:14:36;;;;;;;0.10;0.10;;;;;;;;;;5093086;28;20111;-80
2021/11/03 03:17:02;;;;;;;0.15;0.15;;;;;;;;;;5092816;28;20517;-80
2021/11/03 03:19:27;;;;;;;0.90;0.90;;;;;;;;;;5092730;28;20032;-80
2021/11/03 03:21:52;;;;;;;0.10;0.10;;;;;;;;;;5093011;28;20036;-79
2021/11/03 03:24:18;;;;;;;0.15;0.15;;;;;;;;;;5093039;28;20372;-80
2021/11/03 03:26:44;;;;;;;0.10;0.10;;;;;;;;;;5092646;28;20396;-80
2021/11/03 03:29:09;;;;;;;0.10;0.10;;;;;;;;;;5092978;28;20039;-79
2021/11/03 03:31:35;;;;;;;0.10;0.10;;;;;;;;;;5092957;28;20023;-79
2021/11/03 03:34:02;;;;;;;0.10;0.10;;;;;;;;;;5092896;28;20417;-79
2021/11/03 03:36:28;;;;;;;0.10;0.10;;;;;;;;;;5092345;28;20193;-80
2021/11/03 03:38:54;;;;;;;0.10;0.10;;;;;;;;;;5094778;28;20052;-79
2021/11/03 03:41:20;;;;;;;0.10;0.10;;;;;;;;;;5096457;28;20048;-80
2021/11/03 03:43:46;;;;;;;1.02;1.02;;;;;;;;;;5096180;28;20472;-80
2021/11/03 03:46:14;;;;;;;0.10;0.10;;;;;;;;;;5096654;28;20070;-80
2021/11/03 03:48:40;;;;;;;0.10;0.10;;;;;;;;;;5096311;28;20038;-80
2021/11/03 03:51:06;;;;;;;0.10;0.10;;;;;;;;;;5096366;28;20024;-79
2021/11/03 03:53:31;;;;;;;0.10;0.10;;;;;;;;;;5096236;28;20372;-80
2021/11/03 03:55:57;;;;;;;0.80;0.47;;;;;;;;;;5096282;28;20119;-80
2021/11/03 03:58:22;;;;;;;0.10;0.10;;;;;;;;;;5096306;28;20396;-80
2021/11/03 04:00:48;;;;;;;0.10;0.10;;;;;;;;;;5095948;28;20048;-79
2021/11/03 04:03:13;;;;;;;2.75;1.33;;;;;;;;;;5096153;28;20051;-80
2021/11/03 04:05:39;;;;;;;0.45;0.45;;;;;;;;;;5096013;28;20468;-80
2021/11/03 04:08:04;;;;;;;0.35;0.35;;;;;;;;;;5096102;28;20477;-79
2021/11/03 04:10:30;;;;;;;0.10;0.10;;;;;;;;;;5095815;28;20038;-80
2021/11/03 04:12:55;;;;;;;0.10;0.10;;;;;;;;;;5096094;28;20113;-80
2021/11/03 04:15:21;;;;;;;0.10;0.10;;;;;;;;;;5095830;28;20453;-80
2021/11/03 04:17:46;;;;;;;0.13;0.13;;;;;;;;;;5095787;28;20028;-80
2021/11/03 04:20:12;;;;;;;0.10;0.10;;;;;;;;;;5095751;28;20119;-80
2021/11/03 04:22:38;;;;;;;0.10;0.10;;;;;;;;;;5095692;28;20095;-79
2021/11/03 04:25:05;;;;;;;0.10;0.10;;;;;;;;;;5095806;28;20502;-80
2021/11/03 04:27:30;;;;;;;1.23;1.23;;;;;;;;;;5095542;28;20060;-80
2021/11/03 04:29:55;;;;;;;0.10;0.10;;;;;;;;;;5095765;28;20054;-80
2021/11/03 04:32:20;;;;;;;0.10;0.10;;;;;;;;;;5095445;28;20376;-79
2021/11/03 04:34:46;;;;;;;0.10;0.10;;;;;;;;;;5095294;28;20032;-80
2021/11/03 04:37:11;;;;;;;0.10;0.10;;;;;;;;;;5095368;28;20371;-80
2021/11/03 04:39:37;;;;;;;0.38;0.38;;;;;;;;;;5095697;28;20024;-80
2021/11/03 04:42:03;;;;;;;0.10;0.10;;;;;;;;;;5095342;28;20039;-80
2021/11/03 04:44:28;;;;;;;0.10;0.10;;;;;;;;;;5095298;28;20372;-80
2021/11/03 04:46:53;;;;;;;0.10;0.10;;;;;;;;;;5095282;28;20060;-80
2021/11/03 04:49:18;;;;;;;0.10;0.10;;;;;;;;;;5094348;28;20111;-80
2021/11/03 04:51:44;;;;;;;0.10;0.10;;;;;;;;;;5094267;28;20056;-80
2021/11/03 04:54:09;;;;;;;0.13;0.13;;;;;;;;;;5095251;28;20035;-80
2021/11/03 04:56:35;;;;;;;0.75;0.75;;;;;;;;;;5095247;28;20028;-80
2021/11/03 04:59:01;;;;;;;0.10;0.10;;;;;;;;;;5095176;28;20020;-80
2021/11/03 05:01:27;;;;;;;0.10;0.10;;;;;;;;;;5094886;28;20044;-80
2021/11/03 05:03:53;;;;;;;0.10;0.10;;;;;;;;;;5094794;28;20388;-80
2021/11/03 05:06:21;;;;;;;0.10;0.10;;;;;;;;;;5094643;28;20027;-80
2021/11/03 05:08:47;;;;;;;0.10;0.10;;;;;;;;;;5094754;28;20046;-80
2021/11/03 05:11:12;;;;;;;0.10;0.10;;;;;;;;;;5094823;28;20032;-80
2021/11/03 05:13:38;;;;;;;0.10;0.10;;;;;;;;;;5094614;28;20023;-80
2021/11/03 05:16:03;;;;;;;0.35;0.35;;;;;;;;;;5094847;28;20032;-80
2021/11/03 05:18:29;;;;;;;0.10;0.10;;;;;;;;;;5094327;28;20032;-80
2021/11/03 05:20:54;;;;;;;0.10;0.10;;;;;;;;;;5094571;28;20077;-80
2021/11/03 05:23:24;;;;;;;0.10;0.10;;;;;;;;;;5094512;28;20077;-80
2021/11/03 05:25:49;;;;;;;0.10;0.10;;;;;;;;;;5094445;28;20028;-80
2021/11/03 05:28:15;;;;;;;0.15;0.15;;;;;;;;;;5094437;28;20039;-80
2021/11/03 05:30:40;;;;;;;0.10;0.10;;;;;;;;;;5110270;28;20092;-79
2021/11/03 05:33:05;;;;;;;0.10;0.10;;;;;;;;;;5094713;28;20472;-80
2021/11/03 05:35:31;;;;;;;0.10;0.10;;;;;;;;;;5094292;28;20241;-80
2021/11/03 05:37:56;;;;;;;0.10;0.10;;;;;;;;;;5094362;28;20043;-79
2021/11/03 05:40:23;;;;;;;0.10;0.10;;;;;;;;;;5094156;28;20129;-79
2021/11/03 05:42:48;;;;;;;0.28;0.28;;;;;;;;;;5094073;28;20028;-79
2021/11/03 05:45:14;;;;;;;0.10;0.10;;;;;;;;;;5094312;28;20376;-79
2021/11/03 05:47:39;;;;;;;0.10;0.10;;;;;;;;;;5094273;28;20365;-79
2021/11/03 05:50:06;;;;;;;0.10;0.10;;;;;;;;;;5094076;28;20020;-79
2021/11/03 05:52:31;;;;;;;0.10;0.10;;;;;;;;;;5094034;28;20032;-79
2021/11/03 05:54:56;;;;;;;0.10;0.10;;;;;;;;;;5094134;28;20042;-79
2021/11/03 05:57:27;;;;;;;0.10;0.10;;;;;;;;;;5093903;28;20396;-79
2021/11/03 05:59:52;;;;;;;0.10;0.10;;;;;;;;;;5093643;28;20537;-79
2021/11/03 06:02:18;;;;;;;0.20;0.20;;;;;;;;;;5093593;28;20036;-79
2021/11/03 06:04:44;;;;;;;0.10;0.10;;;;;;;;;;5093804;28;20020;-80
2021/11/03 06:07:10;;;;;;;0.10;0.10;;;;;;;;;;5093955;28;20073;-79
2021/11/03 06:09:35;;;;;;;0.10;0.10;;;;;;;;;;5093735;28;20077;-79
2021/11/03 06:12:01;;;;;;;0.10;0.10;;;;;;;;;;5093968;28;20016;-79
2021/11/03 06:14:26;;;;;;;0.17;0.17;;;;;;;;;;5093656;28;20440;-80
2021/11/03 06:16:51;;;;;;;0.10;0.10;;;;;;;;;;5093984;28;20060;-79
2021/11/03 06:19:17;;;;;;;0.10;0.10;;;;;;;;;;5093665;28;20537;-79
2021/11/03 06:21:42;;;;;;;0.10;0.10;;;;;;;;;;5093509;28;20040;-79
2021/11/03 06:24:07;;;;;;;0.13;0.13;;;;;;;;;;5093781;28;20034;-79
2021/11/03 06:26:33;;;;;;;0.10;0.10;;;;;;;;;;5093458;28;20016;-79
2021/11/03 06:28:58;;;;;;;0.20;0.20;;;;;;;;;;5093680;28;20072;-79
2021/11/03 06:31:23;;;;;;;0.20;0.20;;;;;;;;;;5093207;28;20065;-79
2021/11/03 06:33:50;;;;;;;0.10;0.10;;;;;;;;;;5093397;28;20034;-79
2021/11/03 06:36:15;;;;;;;0.10;0.10;;;;;;;;;;5093563;28;20047;-79
2021/11/03 06:38:41;;;;;;;0.10;0.10;;;;;;;;;;5093079;28;20040;-79
2021/11/03 06:41:07;;;;;;;0.10;0.10;;;;;;;;;;5093415;28;20039;-79
2021/11/03 06:43:33;;;;;;;2.55;2.00;;;;;;;;;;5093337;28;20032;-80
2021/11/03 06:45:58;;;;;;;0.10;0.10;;;;;;;;;;5093421;28;20040;-79
2021/11/03 06:48:23;;;;;;;0.10;0.10;;;;;;;;;;5093083;28;20353;-80
2021/11/03 06:50:51;;;;;;;0.10;0.10;;;;;;;;;;5091997;28;20052;-80
2021/11/03 06:53:19;;;;;;;0.10;0.10;;;;;;;;;;5093346;28;20028;-79
2021/11/03 06:55:47;;;;;;;0.10;0.10;;;;;;;;;;5093135;28;20008;-79
2021/11/03 06:58:13;;;;;;;0.10;0.10;;;;;;;;;;5093176;28;20026;-79
2021/11/03 07:00:39;;;;;;;0.10;0.10;;;;;;;;;;5092938;28;20388;-79
2021/11/03 07:03:05;;;;;;;0.10;0.10;;;;;;;;;;5093220;28;20024;-79
2021/11/03 07:05:31;;;;;;;0.17;0.17;;;;;;;;;;5093092;28;20032;-80
2021/11/03 07:07:56;;;;;;;0.30;0.30;;;;;;;;;;5093565;28;20031;-79
2021/11/03 07:10:27;;;;;;;0.10;0.10;;;;;;;;;;5093049;28;20089;-79
2021/11/03 07:12:52;;;;;;;0.10;0.10;;;;;;;;;;5093749;28;20112;-79
2021/11/03 07:15:18;;;;;;;0.10;0.10;;;;;;;;;;5096685;28;20488;-79
2021/11/03 07:17:44;;;;;;;0.10;0.10;;;;;;;;;;5096963;28;20016;-79
2021/11/03 07:20:09;;;;;;;0.63;0.63;;;;;;;;;;5096964;28;20042;-79
2021/11/03 07:22:34;;;;;;;0.10;0.10;;;;;;;;;;5096797;28;20035;-79
2021/11/03 07:25:00;;;;;;;0.10;0.10;;;;;;;;;;5096865;28;20434;-79
2021/11/03 07:27:25;;;;;;;0.10;0.10;;;;;;;;;;5096634;28;20035;-79
2021/11/03 07:29:50;;;;;;;0.10;0.10;;;;;;;;;;5096936;28;20036;-79
2021/11/03 07:32:16;;;;;;;0.10;0.10;;;;;;;;;;5095537;28;20039;-79
2021/11/03 07:34:42;;;;;;;0.10;0.10;;;;;;;;;;5095202;28;20062;-80
2021/11/03 07:37:08;;;;;;;0.10;0.10;;;;;;;;;;5096474;28;20031;-79
2021/11/03 07:39:33;;;;;;;0.10;0.10;;;;;;;;;;5096569;28;20024;-79
2021/11/03 07:41:59;;;;;;;0.10;0.10;;;;;;;;;;5096475;28;20113;-79
2021/11/03 07:44:24;;;;;;;0.10;0.10;;;;;;;;;;5096254;28;20036;-79
2021/11/03 07:46:50;;;;;;;0.10;0.10;;;;;;;;;;5096526;28;20349;-79
2021/11/03 07:49:15;;;;;;;0.10;0.10;;;;;;;;;;5095894;28;20479;-79
2021/11/03 07:51:40;;;;;;;0.10;0.10;;;;;;;;;;5096415;28;20471;-80
2021/11/03 07:54:05;;;;;;;0.10;0.10;;;;;;;;;;5096743;28;20012;-79
2021/11/03 07:56:32;;;;;;;2.42;0.98;;;;;;;;;;5096166;28;20032;-79
2021/11/03 07:58:58;;;;;;;0.10;0.10;;;;;;;;;;5096033;28;20040;-79
2021/11/03 08:01:23;;;;;;;0.45;0.45;;;;;;;;;;5095622;28;20031;-79
2021/11/03 08:03:50;;;;;;;0.10;0.10;;;;;;;;;;5095944;28;20154;-79
2021/11/03 08:06:16;;;;;;;0.10;0.10;;;;;;;;;;5096187;28;20050;-79
2021/11/03 08:11:29;;;;;;;0.10;0.10;;;;;;;;;;5088671;28;20074;-79
2021/11/03 08:13:54;;;;;;;0.10;0.10;;;;;;;;;;5095641;28;20063;-80
2021/11/03 08:16:19;;;;;;;0.10;0.10;;;;;;;;;;5095876;28;20056;-80
2021/11/03 08:18:45;;;;;;;0.10;0.10;;;;;;;;;;5095680;28;20387;-79
2021/11/03 08:21:12;;;;;;;0.10;0.10;;;;;;;;;;5089776;28;20036;-79
2021/11/03 08:23:38;;;;;;;0.10;0.10;;;;;;;;;;5084724;28;20369;-79
2021/11/03 08:26:03;;;;;;;0.10;0.10;;;;;;;;;;5075303;28;20020;-79
2021/11/03 08:28:28;;;;;;;0.05;0.05;;;;;;;;;;5075042;28;20157;-79
2021/11/03 08:30:54;;;;;;;0.10;0.10;;;;;;;;;;5075308;28;20036;-79
2021/11/03 08:33:33;;;;;;;0.10;0.10;;;;;;;;;;5085280;28;20023;-80
2021/11/03 08:35:59;;;;;;;0.10;0.10;;;;;;;;;;5095180;28;20051;-79
2021/11/03 08:38:24;;;;;;;0.65;0.65;;;;;;;;;;5095316;28;20020;-80
2021/11/03 08:40:51;;;;;;;0.10;0.10;;;;;;;;;;5095241;28;20044;-79
2021/11/03 08:43:20;;;;;;;0.43;0.43;;;;;;;;;;5095160;28;20064;-79
2021/11/03 08:45:45;;;;;;;0.10;0.10;;;;;;;;;;5094826;28;20458;-79
2021/11/03 08:48:11;;;;;;;0.10;0.10;;;;;;;;;;5094432;28;20112;-79
2021/11/03 08:50:37;;;;;;;3.00;0.43;;;;;;;;;;5093803;28;20043;-79
2021/11/03 08:53:04;;;;;;;0.10;0.10;;;;;;;;;;5093927;28;20044;-80
2021/11/03 08:55:29;;;;;;;0.32;0.32;;;;;;;;;;5093537;28;20028;-79
2021/11/03 08:57:56;;;;;;;0.20;0.20;;;;;;;;;;5090973;28;20042;-79
2021/11/03 09:00:23;;;;;;;0.10;0.10;;;;;;;;;;5093507;28;20434;-80
2021/11/03 09:02:49;;;;;;;0.40;0.40;;;;;;;;;;5093965;28;20044;-79
2021/11/03 09:05:14;;;;;;;0.17;0.17;;;;;;;;;;5094685;28;20073;-79
2021/11/03 09:07:40;;;;;;;0.10;0.10;;;;;;;;;;5093945;28;20054;-79
2021/11/03 09:10:08;;;;;;;0.10;0.10;;;;;;;;;;5094300;28;20174;-79
2021/11/03 09:12:33;;;;;;;0.10;0.10;;;;;;;;;;5094304;28;20400;-80
2021/11/03 09:14:59;;;;;;;0.43;0.40;;;;;;;;;;5094371;28;20016;-80
2021/11/03 09:17:27;;;;;;;3.03;2.72;;;;;;;;;;5094701;28;20043;-79
2021/11/03 09:19:52;;;;;;;0.68;0.43;;;;;;;;;;5094586;28;20024;-79
2021/11/03 09:22:18;;;;;;;0.22;0.22;;;;;;;;;;5094207;28;20047;-79
2021/11/03 09:24:43;;;;;;;2.25;1.42;;;;;;;;;;5094530;28;20032;-79
2021/11/03 09:27:18;;;;;;;0.22;0.22;;;;;;;;;;5094072;28;20103;-80
2021/11/03 09:29:44;;;;;;;0.15;0.15;;;;;;;;;;5094568;28;20020;-79
2021/11/03 09:32:13;;;;;;;3.50;2.38;;;;;;;;;;5094110;28;20480;-79
2021/11/03 09:34:39;;;;;;;0.50;0.50;;;;;;;;;;5094046;28;20048;-79
2021/11/03 09:37:06;;;;;;;0.57;0.57;;;;;;;;;;5091852;28;20028;-80
2021/11/03 09:39:32;;;;;;;0.50;0.30;;;;;;;;;;5089725;28;20028;-80
2021/11/03 09:41:57;;;;;;;1.08;1.02;;;;;;;;;;5089644;28;20078;-79
2021/11/03 09:44:30;;;;;;;3.92;2.25;;;;;;;;;;5088490;28;20031;-79
2021/11/03 09:47:00;;;;;;;16.67;5.03;;;;;;;;;;5090208;28;20047;-80
2021/11/03 09:49:37;;;;;;;7.43;3.20;;;;;;;;;;5090418;28;20054;-80
2021/11/03 09:52:11;;;;;;;0.32;0.32;;;;;;;;;;5090459;28;20024;-79
2021/11/03 09:54:37;;;;;;;0.15;0.15;;;;;;;;;;5090459;28;20065;-80
2021/11/03 09:57:23;;;;;;;0.55;0.55;;;;;;;;;;5090787;28;20028;-80
2021/11/03 09:59:51;;;;;;;0.68;0.68;;;;;;;;;;5090425;28;20116;-79
2021/11/03 10:02:19;;;;;;;0.52;0.52;;;;;;;;;;5090255;28;20496;-81
2021/11/03 10:04:44;;;;;;;1.55;0.63;;;;;;;;;;5090267;28;20024;-79
2021/11/03 10:07:30;;;;;;;0.55;0.45;;;;;;;;;;5090555;28;20072;-79
2021/11/03 10:09:55;;;;;;;0.10;0.10;;;;;;;;;;5083134;28;20437;-80
2021/11/03 10:12:22;;;;;;;0.10;0.10;;;;;;;;;;5089903;28;20031;-80
2021/11/03 10:14:48;;;;;;;0.68;0.68;;;;;;;;;;5090267;28;20130;-79
2021/11/03 10:17:16;;;;;;;1.50;1.23;;;;;;;;;;5090215;28;20063;-80
2021/11/03 10:19:42;;;;;;;0.20;0.20;;;;;;;;;;5090372;28;20024;-79
2021/11/03 10:22:31;;;;;;;0.10;0.10;;;;;;;;;;5089861;28;20174;-80
2021/11/03 10:25:00;;;;;;;0.00;0.00;;;;;;;;;;5090695;28;20535;-79
2021/11/03 10:27:26;;;;;;;0.30;0.30;;;;;;;;;;5089863;28;20024;-80
2021/11/03 10:29:53;;;;;;;0.17;0.17;;;;;;;;;;5089809;28;20016;-79
2021/11/03 10:32:21;;;;;;;0.57;0.57;;;;;;;;;;5086707;28;20028;-79
2021/11/03 10:34:49;;;;;;;0.20;0.20;;;;;;;;;;5069865;28;20036;-79
2021/11/03 10:37:25;;;;;;;9.75;0.85;;;;;;;;;;5070256;28;20028;-80
2021/11/03 10:39:51;;;;;;;0.00;0.00;;;;;;;;;;5069313;28;20035;-79
2021/11/03 10:42:43;;;;;;;0.38;0.38;;;;;;;;;;5069365;28;20524;-80
2021/11/03 10:45:11;;;;;;;0.17;0.17;;;;;;;;;;5060949;28;20041;-79
2021/11/03 10:47:37;;;;;;;0.00;0.00;;;;;;;;;;5069681;28;20035;-80
2021/11/03 10:50:12;;;;;;;0.30;0.30;;;;;;;;;;5074035;28;20024;-79
2021/11/03 10:52:46;;;;;;;0.40;0.28;;;;;;;;;;5073177;28;20123;-80
2021/11/03 10:55:15;;;;;;;0.13;0.13;;;;;;;;;;5073187;28;20037;-80
2021/11/03 10:57:43;;;;;;;3.25;1.27;;;;;;;;;;5073424;28;20381;-80
2021/11/03 11:00:23;;;;;;;0.10;0.10;;;;;;;;;;5073139;28;20039;-80
2021/11/03 11:02:59;;;;;;;0.20;0.20;;;;;;;;;;5073352;28;20384;-79
2021/11/03 11:05:25;;;;;;;0.10;0.10;;;;;;;;;;5073040;28;20032;-80
2021/11/03 11:07:54;;;;;;;0.55;0.55;;;;;;;;;;5073997;28;20024;-79
2021/11/03 11:10:25;;;;;;;0.10;0.10;;;;;;;;;;5074313;28;20098;-79
2021/11/03 11:12:52;;;;;;;0.10;0.10;;;;;;;;;;5073766;28;20035;-79
2021/11/03 11:15:38;;;;;;;0.08;0.08;;;;;;;;;;5073222;28;20032;-80
2021/11/03 11:18:13;;;;;;;0.10;0.10;;;;;;;;;;5072512;28;20039;-80
2021/11/03 11:20:48;;;;;;;0.10;0.10;;;;;;;;;;5072651;28;20416;-80
2021/11/03 11:23:18;;;;;;;0.17;0.17;;;;;;;;;;5072371;28;20081;-80
2021/11/03 11:26:01;;;;;;;0.10;0.10;;;;;;;;;;5073333;28;20273;-79
2021/11/03 11:28:45;;;;;;;0.95;0.95;;;;;;;;;;5072607;28;20494;-79
2021/11/03 11:31:14;;;;;;;0.10;0.10;;;;;;;;;;5072838;28;20396;-79
2021/11/03 11:33:43;;;;;;;0.10;0.10;;;;;;;;;;5085684;28;20039;-80
2021/11/03 11:36:16;;;;;;;0.30;0.30;;;;;;;;;;5093376;28;20376;-80
2021/11/03 11:38:47;;;;;;;0.10;0.10;;;;;;;;;;5093735;28;20031;-79
2021/11/03 11:41:25;;;;;;;10.43;1.13;;;;;;;;;;5093168;28;20408;-80
2021/11/03 11:43:56;;;;;;;0.03;0.03;;;;;;;;;;5093041;28;20024;-80
2021/11/03 11:46:23;;;;;;;0.10;0.10;;;;;;;;;;5093248;28;20092;-80
2021/11/03 11:48:49;;;;;;;0.50;0.50;;;;;;;;;;5092947;28;20449;-80
2021/11/03 11:51:34;;;;;;;0.10;0.10;;;;;;;;;;5093658;28;20043;-80
2021/11/03 11:54:01;;;;;;;0.05;0.05;;;;;;;;;;5093053;28;20032;-80
2021/11/03 11:56:30;;;;;;;0.98;0.98;;;;;;;;;;5092746;28;20056;-80
2021/11/03 11:58:59;;;;;;;0.28;0.28;;;;;;;;;;5091078;28;20384;-79
2021/11/03 12:01:42;;;;;;;0.22;0.22;;;;;;;;;;5092860;28;20122;-80
2021/11/03 12:04:08;;;;;;;0.10;0.10;;;;;;;;;;5092298;28;20460;-80
2021/11/03 12:06:36;;;;;;;0.20;0.20;;;;;;;;;;5091182;28;20039;-80
2021/11/03 12:09:17;;;;;;;0.10;0.10;;;;;;;;;;5092178;28;20376;-80
2021/11/03 12:11:55;;;;;;;0.90;0.52;;;;;;;;;;5092332;28;20028;-80
2021/11/03 12:14:23;;;;;;;0.30;0.30;;;;;;;;;;5093040;28;20054;-80
2021/11/03 12:16:56;;;;;;;0.32;0.10;;;;;;;;;;5092706;28;20544;-80
2021/11/03 12:19:36;;;;;;;0.43;0.30;;;;;;;;;;5085406;28;20032;-80
2021/11/03 12:22:06;;;;;;;0.00;0.00;;;;;;;;;;5072319;28;20045;-80
2021/11/03 12:24:34;;;;;;;2.55;1.27;;;;;;;;;;5071595;28;20032;-80
2021/11/03 12:27:23;;;;;;;0.00;0.00;;;;;;;;;;5071567;28;20028;-80
2021/11/03 12:30:08;;;;;;;0.45;0.45;;;;;;;;;;5068391;28;20053;-80
2021/11/03 12:32:53;;;;;;;0.20;0.20;;;;;;;;;;5064622;28;20064;-80
2021/11/03 12:35:19;;;;;;;0.20;0.20;;;;;;;;;;5092090;28;20059;-80
2021/11/03 12:37:46;;;;;;;0.10;0.10;;;;;;;;;;5091779;28;20380;-80
2021/11/03 12:40:30;;;;;;;0.28;0.28;;;;;;;;;;5092025;28;20031;-80
2021/11/03 12:42:58;;;;;;;0.10;0.10;;;;;;;;;;5091881;28;20028;-80
2021/11/03 12:45:29;;;;;;;0.52;0.52;;;;;;;;;;5091630;28;20491;-80
2021/11/03 12:47:55;;;;;;;0.32;0.32;;;;;;;;;;5092184;28;20024;-80
2021/11/03 12:50:26;;;;;;;0.20;0.20;;;;;;;;;;5091300;28;20464;-80
2021/11/03 12:52:55;;;;;;;0.13;0.13;;;;;;;;;;5090850;28;20481;-80
2021/11/03 12:55:26;;;;;;;0.40;0.40;;;;;;;;;;5090455;28;20433;-81
2021/11/03 12:57:52;;;;;;;3.83;1.35;;;;;;;;;;5090935;28;20028;-81
2021/11/03 13:00:19;;;;;;;0.20;0.20;;;;;;;;;;5091825;28;20071;-80
2021/11/03 13:02:50;;;;;;;0.05;0.05;;;;;;;;;;5089542;28;20028;-80
2021/11/03 13:05:29;;;;;;;0.10;0.10;;;;;;;;;;5091074;28;20024;-80
2021/11/03 13:07:55;;;;;;;0.25;0.25;;;;;;;;;;5091134;28;20032;-81
2021/11/03 13:10:20;;;;;;;0.10;0.10;;;;;;;;;;5090333;28;20094;-80
2021/11/03 13:12:55;;;;;;;0.30;0.30;;;;;;;;;;5090128;28;20130;-81
2021/11/03 13:15:22;;;;;;;0.10;0.10;;;;;;;;;;5089753;28;20039;-81
2021/11/03 13:17:49;;;;;;;0.10;0.10;;;;;;;;;;5090684;28;20035;-80
2021/11/03 13:20:34;;;;;;;0.20;0.20;;;;;;;;;;5089674;28;20089;-80
2021/11/03 13:23:00;;;;;;;0.90;0.88;;;;;;;;;;5090761;28;20036;-81
2021/11/03 13:25:36;;;;;;;0.25;0.25;;;;;;;;;;5091149;28;20032;-80
2021/11/03 13:28:02;;;;;;;0.35;0.35;;;;;;;;;;5091353;28;20035;-80
2021/11/03 13:30:32;;;;;;;0.80;0.73;;;;;;;;;;5090784;28;20024;-81
2021/11/03 13:33:04;;;;;;;0.95;0.85;;;;;;;;;;5090599;28;20103;-81
2021/11/03 13:35:34;;;;;;;0.52;0.52;;;;;;;;;;5090863;28;20396;-80
2021/11/03 13:38:01;;;;;;;0.32;0.32;;;;;;;;;;5090572;28;20032;-80
2021/11/03 13:40:27;;;;;;;0.10;0.10;;;;;;;;;;5090154;28;20043;-81
2021/11/03 13:42:55;;;;;;;0.30;0.30;;;;;;;;;;5070086;28;20411;-82
2021/11/03 13:45:23;;;;;;;0.47;0.47;;;;;;;;;;5091043;28;20062;-81
2021/11/03 13:47:57;;;;;;;0.10;0.10;;;;;;;;;;5089967;28;20494;-81
2021/11/03 13:50:32;;;;;;;0.00;0.00;;;;;;;;;;5090391;28;20032;-81
2021/11/03 13:53:17;;;;;;;0.10;0.10;;;;;;;;;;5090585;28;20093;-81
2021/11/03 13:55:42;;;;;;;0.20;0.20;;;;;;;;;;5090845;28;20036;-80
2021/11/03 13:58:26;;;;;;;0.10;0.10;;;;;;;;;;5077579;28;20105;-81
2021/11/03 14:00:59;;;;;;;0.00;0.00;;;;;;;;;;5072360;28;20037;-80
2021/11/03 14:03:35;;;;;;;0.20;0.20;;;;;;;;;;5069765;28;20029;-80
2021/11/03 14:06:19;;;;;;;0.20;0.20;;;;;;;;;;5083340;28;20028;-81
2021/11/03 14:08:45;;;;;;;0.57;0.57;;;;;;;;;;5089944;28;20020;-81
2021/11/03 14:11:11;;;;;;;0.08;0.08;;;;;;;;;;5106057;28;20028;-80
2021/11/03 14:13:36;;;;;;;0.05;0.05;;;;;;;;;;5089949;28;20093;-80
2021/11/03 14:16:28;;;;;;;0.00;0.00;;;;;;;;;;5078067;28;20048;-80
2021/11/03 14:18:54;;;;;;;0.08;0.08;;;;;;;;;;5069371;28;20082;-81
2021/11/03 14:21:21;;;;;;;0.10;0.10;;;;;;;;;;5069785;28;20055;-80
2021/11/03 14:23:46;;;;;;;0.10;0.10;;;;;;;;;;5069485;28;20025;-81
2021/11/03 14:26:12;;;;;;;0.65;0.65;;;;;;;;;;5069917;28;20079;-81
2021/11/03 14:28:38;;;;;;;1.65;1.20;;;;;;;;;;5079338;28;20036;-80
2021/11/03 14:31:35;;;;;;;0.10;0.10;;;;;;;;;;5090744;28;20134;-81
2021/11/03 14:34:03;;;;;;;0.10;0.10;;;;;;;;;;5077609;28;20456;-80
2021/11/03 14:36:29;;;;;;;0.40;0.40;;;;;;;;;;5090223;28;20090;-81
2021/11/03 14:38:55;;;;;;;0.40;0.40;;;;;;;;;;5088639;28;20132;-80
2021/11/03 14:41:22;;;;;;;0.57;0.40;;;;;;;;;;5090252;28;20473;-81
2021/11/03 14:43:51;;;;;;;0.10;0.10;;;;;;;;;;5089737;28;20040;-81
2021/11/03 14:46:20;;;;;;;0.32;0.32;;;;;;;;;;5090351;28;20090;-81
2021/11/03 14:48:46;;;;;;;0.00;0.00;;;;;;;;;;5088950;28;20464;-81
2021/11/03 14:51:11;;;;;;;0.10;0.10;;;;;;;;;;5090403;28;20039;-81